Time;durP1;ratioP1;P1;durP2;ratioP2;P2;SDS_P1;SDS_P2;PMS_P1;PMS_P2;Temp;Humidity;BMP_temperature;BMP_pressure;BME280_temperature;BME280_humidity;BME280_pressure;Samples;Min_cycle;Max_cycle;Signal;HPM_P1;HPM_P2
2022/06/16 00:00:33;;;;;;;2.70;2.28;;;;;;;18.75;52.88;100125.53;4470272;32;34306;-64
2022/06/16 00:03:01;;;;;;;2.92;2.10;;;;;;;18.71;53.06;100123.66;4469807;32;33754;-64
2022/06/16 00:05:30;;;;;;;2.50;2.22;;;;;;;18.60;53.33;100120.22;4470173;32;35123;-64
2022/06/16 00:07:58;;;;;;;2.85;2.12;;;;;;;18.74;52.94;100117.56;4470163;32;34900;-64
2022/06/16 00:10:25;;;;;;;2.37;1.90;;;;;;;18.70;53.24;100120.09;4468813;32;33746;-67
2022/06/16 00:12:53;;;;;;;2.30;1.90;;;;;;;18.69;53.18;100123.16;4470179;32;34064;-64
2022/06/16 00:15:24;;;;;;;2.62;1.90;;;;;;;18.67;52.88;100115.19;4469929;32;34276;-65
2022/06/16 00:17:51;;;;;;;3.58;2.45;;;;;;;18.68;52.78;100113.25;4469491;32;34493;-65
2022/06/16 00:20:19;;;;;;;2.55;2.00;;;;;;;18.28;54.21;100116.19;4470121;32;34263;-64
2022/06/16 00:22:47;;;;;;;3.47;2.20;;;;;;;18.43;54.50;100116.00;4470052;32;33911;-68
2022/06/16 00:25:15;;;;;;;3.58;2.58;;;;;;;18.39;54.62;100111.41;4468758;32;34264;-63
2022/06/16 00:27:43;;;;;;;2.60;2.20;;;;;;;18.28;54.68;100112.63;4469991;32;34081;-65
2022/06/16 00:30:11;;;;;;;2.87;2.00;;;;;;;18.33;54.49;100110.63;4470049;32;33966;-68
2022/06/16 00:32:41;;;;;;;2.72;1.95;;;;;;;18.60;53.36;100104.56;4470084;32;33898;-64
2022/06/16 00:35:10;;;;;;;2.45;1.92;;;;;;;18.38;54.23;100107.84;4467075;32;34951;-64
2022/06/16 00:37:38;;;;;;;2.50;1.80;;;;;;;18.47;53.99;100107.19;4454016;32;34125;-64
2022/06/16 00:40:07;;;;;;;3.47;1.90;;;;;;;18.34;53.84;100105.97;4454216;32;34368;-64
2022/06/16 00:42:35;;;;;;;3.85;1.80;;;;;;;18.50;52.60;100104.66;4454226;32;33995;-64
2022/06/16 00:45:41;;;;;;;3.60;2.10;;;;;;;18.41;53.62;100100.94;4453815;32;34199;-64
2022/06/16 00:48:16;;;;;;;3.50;2.00;;;;;;;18.42;53.63;100102.56;4453851;32;33602;-64
2022/06/16 00:50:46;;;;;;;4.45;2.20;;;;;;;18.14;54.49;100098.75;4454217;32;34001;-71
2022/06/16 00:53:14;;;;;;;2.70;2.00;;;;;;;18.29;53.98;100095.84;4454157;32;34957;-64
2022/06/16 00:55:42;;;;;;;2.50;2.20;;;;;;;18.16;54.69;100089.13;4454144;32;34347;-65
2022/06/16 00:58:09;;;;;;;3.45;2.40;;;;;;;18.04;55.17;100091.44;4454055;32;34751;-64
2022/06/16 01:00:47;;;;;;;2.97;1.95;;;;;;;17.96;56.08;100092.06;4453824;32;33492;-63
2022/06/16 01:04:51;;;;;;;2.80;2.20;;;;;;;18.20;55.21;100087.41;4454199;32;33623;-64
2022/06/16 01:06:23;;;;;;;3.83;2.33;;;;;;;18.11;55.56;100082.88;4453765;32;34230;-62
2022/06/16 01:09:13;;;;;;;3.12;2.22;;;;;;;18.13;55.34;100078.72;4452621;32;33850;-64
2022/06/16 01:15:00;;;;;;;3.37;2.50;;;;;;;17.67;57.24;100072.81;4453867;32;34729;-64
2022/06/16 01:17:57;;;;;;;3.67;2.28;;;;;;;17.92;56.63;100072.59;4454024;32;34364;-64
2022/06/16 01:20:53;;;;;;;2.92;2.10;;;;;;;18.06;56.26;100078.25;4436265;32;33913;-64
2022/06/16 01:23:49;;;;;;;3.45;2.30;;;;;;;17.93;56.40;100065.22;4453786;32;33341;-64
2022/06/16 01:26:22;;;;;;;;;;;;;;;17.85;56.40;100058.41;4439999;32;34019;-64
2022/06/16 01:29:02;;;;;;;2.95;2.17;;;;;;;18.14;56.09;100057.56;4438716;32;35338;-70
2022/06/16 01:31:38;;;;;;;3.78;2.17;;;;;;;18.06;56.18;100061.78;4453612;32;34091;-64
2022/06/16 01:34:10;;;;;;;3.00;2.20;;;;;;;17.98;56.48;100062.41;4453843;32;33591;-64
2022/06/16 01:36:51;;;;;;;3.42;2.50;;;;;;;17.71;57.39;100052.75;4439557;32;34696;-63
2022/06/16 01:39:42;;;;;;;3.97;2.33;;;;;;;17.73;57.58;100053.28;4440171;32;34277;-64
2022/06/16 01:42:15;;;;;;;3.45;2.55;;;;;;;17.70;57.94;100047.56;4439232;32;33941;-65
2022/06/16 01:44:48;;;;;;;3.30;2.30;;;;;;;17.71;57.74;100054.66;4439882;32;33536;-63
2022/06/16 01:47:18;;;;;;;2.80;2.15;;;;;;;17.82;57.22;100057.06;4453757;32;33783;-64
2022/06/16 01:50:00;;;;;;;2.40;2.20;;;;;;;17.76;57.30;100063.69;4453597;32;34334;-64
2022/06/16 01:52:47;;;;;;;3.12;2.47;;;;;;;17.72;57.34;100057.13;4453463;32;34883;-64
2022/06/16 01:55:18;;;;;;;4.05;2.50;;;;;;;17.78;57.06;100053.22;4439512;32;34320;-64
2022/06/16 01:57:49;;;;;;;2.62;2.15;;;;;;;17.74;57.18;100052.19;4439689;32;34745;-63
2022/06/16 02:00:19;;;;;;;3.87;2.47;;;;;;;17.45;58.12;100049.44;4453192;32;33938;-64
2022/06/16 02:03:06;;;;;;;4.12;2.60;;;;;;;17.68;57.55;100045.09;4453352;32;34959;-64
2022/06/16 02:05:40;;;;;;;3.80;2.62;;;;;;;17.38;58.87;100041.50;4439443;32;34382;-64
2022/06/16 02:08:18;;;;;;;2.47;2.10;;;;;;;17.60;57.91;100053.94;4453308;32;34891;-64
2022/06/16 02:10:54;;;;;;;3.40;2.62;;;;;;;17.52;58.32;100049.91;4439435;32;34623;-68
2022/06/16 02:13:25;;;;;;;3.10;2.47;;;;;;;17.66;57.83;100046.50;4439429;32;33892;-64
2022/06/16 02:16:15;;;;;;;3.60;2.58;;;;;;;17.62;58.00;100046.25;4453141;32;33928;-64
2022/06/16 02:18:43;;;;;;;3.78;2.60;;;;;;;17.66;57.97;100055.53;4453318;32;34065;-63
2022/06/16 02:21:27;;;;;;;3.75;2.70;;;;;;;17.62;57.82;100054.47;4439487;32;34190;-64
2022/06/16 02:23:57;;;;;;;3.33;2.47;;;;;;;17.59;58.13;100044.09;4438930;32;34523;-64
2022/06/16 02:26:25;;;;;;;3.65;2.55;;;;;;;17.63;58.23;100056.94;4452332;32;34375;-64
2022/06/16 02:28:55;;;;;;;3.62;2.65;;;;;;;17.52;58.31;100047.16;4453060;32;34100;-63
2022/06/16 02:31:38;;;;;;;3.50;2.78;;;;;;;17.33;59.02;100046.22;4452833;32;35067;-64
2022/06/16 02:34:24;;;;;;;4.28;3.17;;;;;;;17.44;58.85;100045.03;4453168;32;33768;-64
2022/06/16 02:36:56;;;;;;;4.47;2.95;;;;;;;17.56;58.46;100041.94;4437534;32;33165;-69
2022/06/16 02:39:34;;;;;;;6.65;2.70;;;;;;;17.41;58.86;100042.88;4438328;32;34038;-63
2022/06/16 02:42:26;;;;;;;5.00;2.80;;;;;;;17.51;58.53;100047.44;4454798;32;35086;-63
2022/06/16 02:44:54;;;;;;;4.45;2.90;;;;;;;17.56;58.40;100050.97;4440878;32;34366;-62
2022/06/16 02:47:44;;;;;;;3.30;2.60;;;;;;;17.36;59.03;100045.66;4439263;32;33599;-64
2022/06/16 02:50:23;;;;;;;3.58;3.00;;;;;;;17.38;59.37;100038.75;4451677;32;34761;-64
2022/06/16 02:53:12;;;;;;;5.62;2.90;;;;;;;17.34;59.59;100045.97;4441028;32;34288;-65
2022/06/16 02:55:45;;;;;;;3.78;2.67;;;;;;;17.47;59.11;100044.44;4454148;32;33837;-64
2022/06/16 02:58:18;;;;;;;3.50;2.60;;;;;;;17.60;58.54;100053.94;4441384;32;33423;-63
2022/06/16 03:00:49;;;;;;;4.75;2.70;;;;;;;17.57;58.48;100052.59;4454917;32;33820;-66
2022/06/16 03:03:16;;;;;;;3.50;2.55;;;;;;;17.61;58.48;100050.91;4440970;32;33987;-64
2022/06/16 03:05:44;;;;;;;5.05;2.65;;;;;;;17.49;58.68;100052.41;4453231;32;33984;-70
2022/06/16 03:08:12;;;;;;;3.72;2.87;;;;;;;17.01;60.40;100055.78;4452249;32;33523;-69
2022/06/16 03:10:52;;;;;;;3.70;2.60;;;;;;;17.30;59.84;100053.13;4452719;32;33857;-70
2022/06/16 03:13:30;;;;;;;4.60;2.72;;;;;;;17.36;59.85;100051.13;4440662;32;33260;-70
2022/06/16 03:15:59;;;;;;;3.85;2.90;;;;;;;17.55;59.33;100052.06;4440749;32;32458;-72
2022/06/16 03:18:28;;;;;;;4.03;2.90;;;;;;;17.65;59.13;100051.16;4437641;32;33531;-69
2022/06/16 03:20:55;;;;;;;3.65;2.70;;;;;;;17.89;58.50;100055.91;4438452;32;34660;-70
2022/06/16 03:23:23;;;;;;;3.87;2.70;;;;;;;18.08;57.97;100055.97;4454541;32;34036;-71
2022/06/16 03:25:50;;;;;;;3.40;2.72;;;;;;;18.24;57.86;100060.19;4437538;32;33698;-73
2022/06/16 03:28:19;;;;;;;3.10;2.45;;;;;;;18.39;57.67;100059.19;4437977;32;33491;-72
2022/06/16 03:30:47;;;;;;;3.75;2.67;;;;;;;18.52;58.41;100049.44;4425278;32;34005;-70
2022/06/16 03:33:15;;;;;;;3.67;2.83;;;;;;;18.84;57.03;100049.56;4439004;32;34187;-73
2022/06/16 03:35:43;;;;;;;3.62;2.58;;;;;;;19.14;55.86;100055.72;4446346;32;34842;-71
2022/06/16 03:40:59;;;;;;;3.50;2.70;;;;;;;18.87;55.98;100050.91;4427211;32;34023;-70
2022/06/16 03:43:27;;;;;;;4.53;2.90;;;;;;;18.56;57.24;100058.72;4440885;32;33744;-70
2022/06/16 03:45:57;;;;;;;3.67;2.85;;;;;;;18.36;60.49;100057.06;4441360;32;34556;-72
2022/06/16 03:48:24;;;;;;;3.28;2.58;;;;;;;18.89;57.89;100056.91;4454072;32;34128;-74
2022/06/16 03:50:55;;;;;;;4.00;2.70;;;;;;;18.91;57.57;100057.44;4436871;32;33551;-72
2022/06/16 03:53:24;;;;;;;4.50;2.97;;;;;;;19.07;55.64;100063.56;4439551;32;32812;-74
2022/06/16 03:55:52;;;;;;;3.30;2.45;;;;;;;19.36;55.52;100059.81;4441000;32;34621;-70
2022/06/16 03:58:23;;;;;;;4.30;2.87;;;;;;;18.76;56.56;100063.13;4453929;32;33510;-72
2022/06/16 04:00:51;;;;;;;4.07;2.90;;;;;;;18.35;58.69;100058.16;4453791;32;33932;-69
2022/06/16 04:06:07;;;;;;;4.70;3.17;;;;;;;18.66;58.55;100069.59;4454407;32;34426;-74
2022/06/16 04:08:35;;;;;;;3.58;2.78;;;;;;;19.21;58.69;100069.09;4437494;32;34151;-73
2022/06/16 04:11:26;;;;;;;3.67;2.75;;;;;;;19.77;56.90;100078.41;4451676;32;33834;-71
2022/06/16 04:13:52;;;;;;;4.68;3.20;;;;;;;20.36;54.70;100081.44;4442228;32;34203;-70
2022/06/16 04:16:20;;;;;;;3.75;2.70;;;;;;;20.86;53.37;100084.28;4439771;32;34793;-71
2022/06/16 04:18:47;;;;;;;4.03;2.90;;;;;;;20.63;53.74;100080.66;4453828;32;34187;-75
2022/06/16 04:21:15;;;;;;;3.50;2.47;;;;;;;20.94;54.15;100075.28;4453535;32;33857;-73
2022/06/16 04:23:44;;;;;;;4.20;2.70;;;;;;;21.41;52.75;100083.31;4453822;32;35642;-79
2022/06/16 04:26:12;;;;;;;4.53;2.80;;;;;;;21.91;50.52;100081.22;4454080;32;34937;-71
2022/06/16 04:28:41;;;;;;;3.15;2.45;;;;;;;22.24;48.69;100078.16;4439355;32;33844;-73
2022/06/16 04:31:09;;;;;;;4.68;3.10;;;;;;;22.23;50.07;100082.06;4449216;32;34418;-72
2022/06/16 04:33:37;;;;;;;3.22;2.58;;;;;;;22.22;50.48;100087.87;4452833;32;34334;-72
2022/06/16 04:36:06;;;;;;;3.97;2.80;;;;;;;22.73;49.12;100083.69;4433363;32;34808;-72
2022/06/16 04:38:34;;;;;;;5.30;2.97;;;;;;;21.97;52.07;100087.44;4450000;32;34314;-71
2022/06/16 04:41:01;;;;;;;4.82;3.00;;;;;;;21.43;53.52;100090.19;4431707;32;34752;-74
2022/06/16 04:43:30;;;;;;;5.30;3.17;;;;;;;22.00;51.29;100084.03;4452915;32;34209;-73
2022/06/16 04:45:58;;;;;;;5.15;3.35;;;;;;;22.41;49.85;100084.87;4438754;32;33339;-72
2022/06/16 04:48:27;;;;;;;4.22;2.87;;;;;;;21.89;50.83;100086.25;4453186;32;33213;-72
2022/06/16 04:50:55;;;;;;;4.80;3.05;;;;;;;22.54;49.06;100086.72;4436179;32;34638;-69
2022/06/16 04:53:23;;;;;;;4.28;2.90;;;;;;;22.57;48.79;100088.03;4451074;32;33792;-69
2022/06/16 04:55:52;;;;;;;5.18;3.40;;;;;;;21.90;51.85;100084.31;4437813;32;34485;-70
2022/06/16 04:58:22;;;;;;;6.22;2.87;;;;;;;22.78;49.86;100082.72;4452544;32;34418;-70
2022/06/16 05:00:51;;;;;;;5.95;3.35;;;;;;;22.63;51.00;100081.22;4438155;32;34857;-70
2022/06/16 05:03:39;;;;;;;4.65;3.00;;;;;;;22.53;50.22;100082.34;4425582;32;33475;-70
2022/06/16 05:06:07;;;;;;;5.90;3.30;;;;;;;23.25;48.35;100088.50;4437970;32;34740;-70
2022/06/16 05:08:35;;;;;;;8.38;3.70;;;;;;;22.81;47.89;100085.66;4451799;32;34234;-71
2022/06/16 05:11:05;;;;;;;5.00;3.25;;;;;;;22.11;48.78;100081.81;4452135;32;34440;-70
2022/06/16 05:13:32;;;;;;;4.45;3.08;;;;;;;22.26;48.63;100088.91;4452318;32;33808;-71
2022/06/16 05:16:02;;;;;;;4.00;2.78;;;;;;;22.11;49.08;100084.56;4451867;32;34850;-73
2022/06/16 05:18:30;;;;;;;4.22;2.95;;;;;;;22.46;48.99;100088.34;4452145;32;34393;-73
2022/06/16 05:21:06;;;;;;;4.12;3.03;;;;;;;22.09;48.93;100082.16;4449794;32;33735;-74
2022/06/16 05:23:34;;;;;;;4.75;3.17;;;;;;;22.37;48.21;100078.38;4447529;32;33759;-73
2022/06/16 05:26:03;;;;;;;3.92;2.90;;;;;;;22.53;47.87;100085.09;4450657;32;34694;-73
2022/06/16 05:28:32;;;;;;;4.30;3.10;;;;;;;23.12;47.59;100081.97;4433839;32;33573;-72
2022/06/16 05:31:00;;;;;;;4.60;3.10;;;;;;;23.23;47.91;100083.28;4435229;32;33866;-72
2022/06/16 05:33:32;;;;;;;5.90;3.08;;;;;;;22.99;47.84;100088.44;4435585;32;34716;-70
2022/06/16 05:36:04;;;;;;;5.97;3.12;;;;;;;23.26;47.06;100087.34;4437213;32;34069;-72
2022/06/16 05:38:33;;;;;;;6.35;2.87;;;;;;;23.81;45.84;100094.97;4435936;32;34036;-74
2022/06/16 05:41:06;;;;;;;5.45;3.28;;;;;;;23.78;46.87;100089.28;4436269;32;34679;-72
2022/06/16 05:43:35;;;;;;;3.35;2.70;;;;;;;24.10;44.58;100082.34;4435053;32;35219;-74
2022/06/16 05:46:04;;;;;;;4.40;3.00;;;;;;;23.31;45.56;100076.12;4435413;32;33851;-73
2022/06/16 05:48:33;;;;;;;5.53;3.00;;;;;;;23.75;47.08;100087.94;4435929;32;34261;-72
2022/06/16 05:51:06;;;;;;;5.12;2.78;;;;;;;24.41;45.91;100084.81;4437498;32;34034;-71
2022/06/16 05:53:35;;;;;;;5.37;3.03;;;;;;;24.56;43.53;100075.16;4452236;32;33653;-71
2022/06/16 05:56:10;;;;;;;4.62;2.92;;;;;;;24.55;44.29;100084.63;4438443;32;33831;-69
2022/06/16 05:58:38;;;;;;;3.97;2.50;;;;;;;24.38;43.20;100085.47;4451946;32;33211;-70
2022/06/16 06:01:06;;;;;;;4.30;2.72;;;;;;;24.41;43.27;100081.25;4467503;32;33741;-70
2022/06/16 06:03:36;;;;;;;2.80;2.35;;;;;;;25.02;43.13;100081.72;4461420;32;34071;-72
2022/06/16 06:06:04;;;;;;;3.37;2.70;;;;;;;24.77;42.81;100080.72;4437418;32;34823;-73
2022/06/16 06:17:12;;;;;;;3.12;2.28;;;;;;;25.65;42.49;100070.56;4412679;32;33590;-73
2022/06/16 06:19:39;;;;;;;5.18;2.45;;;;;;;25.04;42.58;100084.16;4436557;32;33561;-69
2022/06/16 06:22:16;;;;;;;3.67;2.30;;;;;;;25.71;40.19;100085.06;4445776;32;34080;-68
2022/06/16 06:24:56;;;;;;;3.80;2.58;;;;;;;26.07;39.93;100081.59;4456364;32;34837;-70
2022/06/16 06:27:31;;;;;;;3.55;2.20;;;;;;;25.83;39.42;100078.72;4455314;32;34551;-70
2022/06/16 06:30:06;;;;;;;3.87;2.35;;;;;;;25.45;40.31;100076.97;4456410;32;33375;-71
2022/06/16 06:32:34;;;;;;;3.75;2.30;;;;;;;26.09;38.05;100078.44;4468902;32;34635;-70
2022/06/16 06:35:02;;;;;;;2.10;1.90;;;;;;;25.72;41.71;100076.41;4469004;32;34036;-70
2022/06/16 06:37:30;;;;;;;3.17;2.20;;;;;;;26.26;39.54;100083.78;4469730;32;33843;-70
2022/06/16 06:39:58;;;;;;;2.92;2.17;;;;;;;27.33;35.50;100078.03;4459669;32;33221;-71
2022/06/16 06:42:25;;;;;;;2.92;2.10;;;;;;;27.37;36.59;100084.50;4461730;32;34509;-69
2022/06/16 06:44:55;;;;;;;2.53;1.87;;;;;;;27.86;35.35;100077.09;4466528;32;34985;-70
2022/06/16 06:47:29;;;;;;;3.62;2.58;;;;;;;28.15;34.67;100087.03;4440191;32;33934;-71
2022/06/16 06:49:57;;;;;;;3.92;2.35;;;;;;;28.52;34.71;100087.59;4447918;32;34333;-70
2022/06/16 06:52:24;;;;;;;5.37;2.03;;;;;;;28.56;35.33;100082.09;4448201;32;33654;-71
2022/06/16 06:54:52;;;;;;;3.03;2.05;;;;;;;28.53;34.50;100080.00;4438344;32;34752;-70
2022/06/16 06:57:25;;;;;;;4.03;2.12;;;;;;;28.32;32.91;100078.31;4438727;32;34227;-70
2022/06/16 06:59:52;;;;;;;3.22;2.00;;;;;;;27.36;36.00;100080.09;4426665;32;33597;-71
2022/06/16 07:02:21;;;;;;;4.32;2.30;;;;;;;28.01;35.76;100079.94;4451634;32;34914;-73
2022/06/16 07:04:48;;;;;;;2.37;1.85;;;;;;;27.72;35.13;100075.53;4439513;32;34210;-69
2022/06/16 07:07:22;;;;;;;4.10;2.17;;;;;;;28.06;35.32;100081.63;4456125;32;33967;-71
2022/06/16 07:09:50;;;;;;;4.05;2.08;;;;;;;28.52;33.88;100081.19;4452337;32;32771;-70
2022/06/16 07:12:18;;;;;;;4.15;2.20;;;;;;;28.33;34.52;100084.69;4453038;32;34576;-70
2022/06/16 07:14:48;;;;;;;3.58;2.05;;;;;;;27.41;36.27;100079.84;4443457;32;34262;-71
2022/06/16 07:17:21;;;;;;;5.20;2.45;;;;;;;28.34;36.02;100081.53;4439021;32;34095;-73
2022/06/16 07:19:49;;;;;;;2.87;2.00;;;;;;;29.18;34.04;100079.50;4452568;32;34467;-74
2022/06/16 07:22:17;;;;;;;2.92;2.12;;;;;;;29.29;33.22;100077.78;4453002;32;34086;-75
2022/06/16 07:24:45;;;;;;;4.37;2.33;;;;;;;29.78;32.20;100077.13;4453136;32;34604;-72
2022/06/16 07:27:12;;;;;;;4.07;2.03;;;;;;;30.42;30.28;100069.09;4452807;32;34243;-72
2022/06/16 07:29:40;;;;;;;3.58;2.05;;;;;;;30.48;30.43;100071.56;4439183;32;33491;-73
2022/06/16 07:32:11;;;;;;;2.70;1.98;;;;;;;30.45;30.62;100068.34;4438789;32;33864;-72
2022/06/16 07:34:40;;;;;;;3.53;2.10;;;;;;;29.89;31.77;100065.34;4453001;32;34013;-74
2022/06/16 07:37:07;;;;;;;2.85;2.00;;;;;;;30.02;32.10;100073.19;4438911;32;34454;-72
2022/06/16 07:39:34;;;;;;;3.53;2.17;;;;;;;29.98;32.25;100068.69;4453359;32;33354;-74
2022/06/16 07:42:03;;;;;;;4.00;2.03;;;;;;;30.01;31.59;100067.97;4452680;32;34282;-72
2022/06/16 07:44:30;;;;;;;6.15;2.10;;;;;;;29.89;32.05;100063.34;4452961;32;34122;-73
2022/06/16 07:46:58;;;;;;;2.45;1.73;;;;;;;30.00;32.41;100064.37;4452719;32;33934;-75
2022/06/16 07:49:27;;;;;;;2.65;2.00;;;;;;;30.22;30.96;100059.94;4458322;32;33407;-77
2022/06/16 07:51:57;;;;;;;2.47;1.80;;;;;;;30.21;30.56;100071.50;4468770;32;33862;-71
2022/06/16 07:54:25;;;;;;;4.68;2.08;;;;;;;29.51;35.55;100067.81;4454914;32;34964;-73
2022/06/16 07:57:13;;;;;;;2.87;1.87;;;;;;;29.14;33.20;100056.28;4457054;32;34685;-75
2022/06/16 07:59:51;;;;;;;2.37;1.90;;;;;;;29.15;32.15;100057.91;4468992;32;34197;-72
2022/06/16 08:02:20;;;;;;;5.85;2.28;;;;;;;29.17;33.71;100061.94;4468752;32;34772;-72
2022/06/16 08:04:48;;;;;;;4.72;2.10;;;;;;;29.57;30.33;100059.94;4455170;32;34246;-74
2022/06/16 08:07:16;;;;;;;4.57;2.50;;;;;;;28.59;30.27;100050.66;4443624;32;33929;-73
2022/06/16 08:09:44;;;;;;;2.33;1.75;;;;;;;29.23;30.53;100059.66;4439940;32;33544;-68
2022/06/16 08:12:13;;;;;;;3.03;1.92;;;;;;;29.18;32.25;100051.56;4441829;32;33276;-70
2022/06/16 08:14:44;;;;;;;2.85;1.98;;;;;;;28.93;31.97;100051.81;4455148;32;33726;-70
2022/06/16 08:17:21;;;;;;;2.95;1.80;;;;;;;29.36;29.46;100046.34;4454921;32;33919;-72
2022/06/16 08:19:49;;;;;;;2.97;2.10;;;;;;;29.28;29.19;100059.38;4454657;32;33541;-71
2022/06/16 08:22:18;;;;;;;3.00;2.10;;;;;;;29.14;31.55;100059.88;4455545;32;33850;-70
2022/06/16 08:24:47;;;;;;;3.45;1.98;;;;;;;29.08;33.37;100058.53;4439540;32;34184;-71
2022/06/16 08:27:16;;;;;;;3.05;2.00;;;;;;;28.70;33.88;100056.47;4453193;32;34350;-72
2022/06/16 08:29:44;;;;;;;4.40;1.87;;;;;;;28.78;33.11;100061.88;4439436;32;32891;-72
2022/06/16 08:32:15;;;;;;;4.37;1.95;;;;;;;29.39;29.68;100060.38;4453069;32;34852;-74
2022/06/16 08:34:44;;;;;;;3.90;1.73;;;;;;;29.21;34.16;100053.63;4439263;32;33958;-68
2022/06/16 08:37:11;;;;;;;2.25;1.40;;;;;;;29.63;29.58;100055.66;4438392;32;34360;-73
2022/06/16 08:39:39;;;;;;;3.05;1.73;;;;;;;29.32;30.12;100067.84;4453319;32;33657;-69
2022/06/16 08:42:18;;;;;;;1.80;1.50;;;;;;;28.96;26.37;100058.66;4452885;32;34677;-65
2022/06/16 08:44:51;;;;;;;1.95;1.30;;;;;;;29.57;25.02;100062.75;4439358;32;34014;-67
2022/06/16 08:47:27;;;;;;;3.57;1.93;;;;;;;29.71;25.78;100059.44;4453098;32;34039;-67
2022/06/16 08:50:12;;;;;;;2.25;1.85;;;;;;;29.61;27.53;100060.81;4438415;32;33046;-66
2022/06/16 08:52:53;;;;;;;3.87;1.73;;;;;;;29.65;26.72;100059.72;4438405;32;33882;-67
2022/06/16 08:55:45;;;;;;;2.67;1.58;;;;;;;29.49;28.59;100059.00;4453295;32;35149;-67
2022/06/16 08:58:16;;;;;;;2.78;1.92;;;;;;;29.26;29.79;100064.50;4444679;32;33539;-67
2022/06/16 09:00:46;;;;;;;3.33;2.20;;;;;;;29.17;29.86;100061.94;4452628;32;34372;-68
2022/06/16 09:03:21;;;;;;;2.67;2.03;;;;;;;27.94;31.00;100056.59;4452507;32;34138;-66
2022/06/16 09:05:58;;;;;;;2.90;2.05;;;;;;;28.34;31.41;100067.59;4465082;32;33796;-66
2022/06/16 09:08:48;;;;;;;3.10;2.30;;;;;;;29.02;31.17;100060.78;4468509;32;33709;-67
2022/06/16 09:11:42;;;;;;;2.75;2.17;;;;;;;29.26;30.62;100058.91;4468424;32;34224;-68
2022/06/16 09:15:10;;;;;;;4.85;2.17;;;;;;;29.59;27.40;100054.78;4468440;32;33991;-68
2022/06/16 09:17:52;;;;;;;2.80;2.10;;;;;;;29.62;29.71;100057.66;4457009;32;34166;-67
2022/06/16 09:20:45;;;;;;;3.53;2.50;;;;;;;29.44;28.95;100053.72;4467842;32;32660;-71
2022/06/16 09:23:25;;;;;;;7.07;2.60;;;;;;;29.52;29.34;100047.06;4468327;32;33572;-70
2022/06/16 09:26:07;;;;;;;5.20;2.12;;;;;;;28.90;28.76;100046.16;4468455;32;33981;-69
2022/06/16 09:28:40;;;;;;;2.22;1.95;;;;;;;28.79;32.02;100055.13;4454020;32;34024;-66
2022/06/16 09:31:13;;;;;;;6.80;2.33;;;;;;;29.04;31.74;100046.47;4451234;32;34960;-71
2022/06/16 09:33:46;;;;;;;4.50;1.97;;;;;;;28.91;30.87;100050.56;4457861;32;33598;-70
2022/06/16 09:36:31;;;;;;;2.60;2.22;;;;;;;28.39;28.77;100044.19;4454338;32;34092;-67
2022/06/16 09:39:22;;;;;;;2.40;1.87;;;;;;;27.72;29.23;100039.28;4454585;32;33846;-69
2022/06/16 09:42:37;;;;;;;2.78;1.77;;;;;;;28.20;31.22;100042.12;4456404;32;33919;-68
2022/06/16 09:45:26;;;;;;;3.28;1.67;;;;;;;29.09;27.68;100032.22;4468119;32;34309;-68
2022/06/16 09:48:04;;;;;;;2.15;1.60;;;;;;;28.96;26.66;100020.37;4466084;32;34259;-71
2022/06/16 09:50:39;;;;;;;3.62;1.75;;;;;;;29.08;27.65;100013.03;4440011;32;34043;-70
2022/06/16 09:53:39;;;;;;;2.17;1.33;;;;;;;29.51;26.00;100011.91;4454508;32;34383;-70
2022/06/16 09:56:17;;;;;;;1.80;1.55;;;;;;;29.61;25.54;100025.28;4454464;32;33524;-70
2022/06/16 09:58:50;;;;;;;2.20;1.40;;;;;;;29.47;27.20;100024.19;4439751;32;35087;-71
2022/06/16 10:01:21;;;;;;;2.30;1.62;;;;;;;29.30;25.54;100034.66;4440282;32;34998;-71
2022/06/16 10:04:01;;;;;;;2.15;1.35;;;;;;;29.50;26.41;100029.84;4454013;32;34579;-71
2022/06/16 10:06:57;;;;;;;1.77;1.42;;;;;;;29.92;25.51;100023.47;4453027;32;34076;-68
2022/06/16 10:09:31;;;;;;;3.17;1.37;;;;;;;30.08;23.65;100023.31;4454146;32;34757;-67
2022/06/16 10:12:08;;;;;;;2.17;1.43;;;;;;;29.97;23.73;100013.94;4454046;32;34079;-67
2022/06/16 10:14:55;;;;;;;1.98;1.45;;;;;;;29.78;25.64;100023.19;4453122;32;34666;-67
2022/06/16 10:17:23;;;;;;;2.05;1.40;;;;;;;29.71;24.66;100018.28;4442053;32;33462;-69
2022/06/16 10:19:52;;;;;;;2.80;1.60;;;;;;;29.31;24.63;100011.13;4440113;32;33952;-69
2022/06/16 10:22:22;;;;;;;1.90;1.52;;;;;;;29.36;24.73;100013.63;4453887;32;35077;-70
2022/06/16 10:25:15;;;;;;;2.10;1.50;;;;;;;29.70;24.71;100016.69;4440304;32;34286;-71
2022/06/16 10:27:57;;;;;;;2.73;1.40;;;;;;;29.72;27.93;100019.09;4452932;32;34460;-73
2022/06/16 10:30:43;;;;;;;1.70;1.30;;;;;;;29.36;24.62;100013.63;4447996;32;34712;-70
2022/06/16 10:33:26;;;;;;;1.52;1.42;;;;;;;29.95;25.45;100017.09;4468763;32;34091;-67
2022/06/16 10:36:01;;;;;;;2.00;1.30;;;;;;;29.92;26.70;100017.88;4469757;32;33627;-68
2022/06/16 10:38:34;;;;;;;3.65;1.70;;;;;;;29.88;24.24;100019.00;4455726;32;33573;-70
2022/06/16 10:41:29;;;;;;;4.10;1.50;;;;;;;28.37;28.23;100019.41;4469275;32;33950;-69
2022/06/16 10:44:03;;;;;;;1.58;1.27;;;;;;;28.78;27.13;100019.97;4449523;32;34371;-67
2022/06/16 10:46:34;;;;;;;3.92;1.40;;;;;;;29.68;26.60;100018.19;4455820;32;34131;-68
2022/06/16 10:49:15;;;;;;;1.75;1.40;;;;;;;30.01;26.67;100015.62;4455054;32;34409;-68
2022/06/16 10:51:53;;;;;;;5.37;1.60;;;;;;;29.26;24.22;100010.63;4455400;32;34634;-72
2022/06/16 10:54:30;;;;;;;2.85;1.67;;;;;;;29.56;24.01;100021.97;4468751;32;34136;-68
2022/06/16 10:57:25;;;;;;;1.50;1.40;;;;;;;29.37;24.97;100014.41;4467700;32;34182;-74
2022/06/16 11:00:13;;;;;;;2.12;1.60;;;;;;;29.66;25.56;100012.97;4465432;32;33371;-69
2022/06/16 11:03:08;;;;;;;1.87;1.30;;;;;;;29.52;26.13;100012.72;4467542;32;33751;-70
2022/06/16 11:05:57;;;;;;;2.72;1.60;;;;;;;29.51;24.78;100006.31;4469425;32;34295;-68
2022/06/16 11:08:37;;;;;;;1.80;1.52;;;;;;;29.98;24.83;99999.59;4469255;32;34641;-70
2022/06/16 11:11:19;;;;;;;2.83;1.42;;;;;;;29.69;25.66;99989.06;4456195;32;33667;-71
2022/06/16 11:13:53;;;;;;;1.45;1.35;;;;;;;30.04;25.83;99986.06;4448810;32;33768;-71
2022/06/16 11:16:31;;;;;;;2.35;1.67;;;;;;;30.58;22.61;99986.91;4454506;32;34338;-72
2022/06/16 11:19:00;;;;;;;1.60;1.50;;;;;;;30.23;25.00;99985.19;4455435;32;33916;-75
2022/06/16 11:21:30;;;;;;;1.83;1.30;;;;;;;30.44;25.19;99979.94;4454666;32;33667;-66
2022/06/16 11:24:02;;;;;;;3.12;1.30;;;;;;;30.41;24.64;99972.28;4468963;32;34889;-66
2022/06/16 11:26:32;;;;;;;3.30;1.45;;;;;;;30.04;23.96;99969.28;4468976;32;34242;-65
2022/06/16 11:29:10;;;;;;;3.20;1.60;;;;;;;30.52;24.67;99966.00;4468184;32;34128;-67
2022/06/16 11:31:42;;;;;;;2.95;1.62;;;;;;;30.50;23.33;99957.19;4469057;32;32474;-66
2022/06/16 11:34:17;;;;;;;2.47;1.60;;;;;;;29.12;24.37;99952.47;4469484;32;33987;-68
2022/06/16 11:37:31;;;;;;;2.12;1.52;;;;;;;30.21;23.74;99962.34;4455847;32;33787;-66
2022/06/16 11:40:32;;;;;;;2.53;1.70;;;;;;;29.48;24.49;99953.94;4455224;32;34801;-66
2022/06/16 11:43:25;;;;;;;3.97;1.60;;;;;;;29.98;25.66;99952.03;4441704;32;33502;-64
2022/06/16 11:45:54;;;;;;;2.90;1.60;;;;;;;30.11;23.99;99947.03;4453861;32;34073;-78
2022/06/16 11:48:38;;;;;;;2.55;1.67;;;;;;;30.03;23.63;99948.09;4469188;32;34072;-75
2022/06/16 11:51:11;;;;;;;1.60;1.40;;;;;;;29.05;24.02;99933.56;4469048;32;34456;-69
2022/06/16 11:53:45;;;;;;;2.65;1.80;;;;;;;30.16;25.73;99940.31;4468513;32;33590;-74
2022/06/16 11:56:30;;;;;;;2.43;1.53;;;;;;;30.39;25.97;99931.84;4468631;32;34036;-74
2022/06/16 11:59:10;;;;;;;3.00;1.62;;;;;;;30.70;23.87;99929.88;4467002;32;35106;-67
2022/06/16 12:01:46;;;;;;;2.20;1.60;;;;;;;30.03;23.13;99925.72;4453475;32;33942;-68
2022/06/16 12:04:41;;;;;;;2.53;1.80;;;;;;;30.31;23.87;99922.56;4453531;32;34190;-74
2022/06/16 12:07:41;;;;;;;1.77;1.40;;;;;;;30.69;24.66;99926.25;4451924;32;33976;-78
2022/06/16 12:10:18;;;;;;;2.40;1.60;;;;;;;30.83;25.01;99917.22;4451789;32;34205;-71
2022/06/16 12:12:54;;;;;;;2.40;1.87;;;;;;;31.08;23.64;99931.56;4452031;32;33577;-67
2022/06/16 12:15:35;;;;;;;2.97;1.90;;;;;;;31.19;22.94;99921.25;4451088;32;33818;-72
2022/06/16 12:18:11;;;;;;;2.42;1.65;;;;;;;31.38;23.99;99925.03;4454591;32;33620;-70